sensor_id;sensor_type;location;lat;lon;timestamp;temperature;humidity
22167;DHT22;11249;52.468;13.776;2023-07-08T00:00:16;15.90;99.90
22167;DHT22;11249;52.468;13.776;2023-07-08T00:02:43;15.80;99.90
22167;DHT22;11249;52.468;13.776;2023-07-08T00:05:11;15.80;99.90
22167;DHT22;11249;52.468;13.776;2023-07-08T00:07:40;15.70;99.90
22167;DHT22;11249;52.468;13.776;2023-07-08T00:10:11;15.70;99.90
22167;DHT22;11249;52.468;13.776;2023-07-08T00:12:38;15.70;99.90
22167;DHT22;11249;52.468;13.776;2023-07-08T00:15:05;15.70;99.90
22167;DHT22;11249;52.468;13.776;2023-07-08T00:17:32;15.60;99.90
22167;DHT22;11249;52.468;13.776;2023-07-08T00:19:59;15.60;99.90
22167;DHT22;11249;52.468;13.776;2023-07-08T00:22:25;15.50;99.90
22167;DHT22;11249;52.468;13.776;2023-07-08T00:24:53;15.50;99.90
22167;DHT22;11249;52.468;13.776;2023-07-08T00:27:20;15.50;99.90
22167;DHT22;11249;52.468;13.776;2023-07-08T00:29:46;15.50;99.90
22167;DHT22;11249;52.468;13.776;2023-07-08T00:32:15;15.50;99.90
22167;DHT22;11249;52.468;13.776;2023-07-08T00:34:42;15.40;99.90
22167;DHT22;11249;52.468;13.776;2023-07-08T00:37:11;15.40;99.90
22167;DHT22;11249;52.468;13.776;2023-07-08T00:39:38;15.40;99.90
22167;DHT22;11249;52.468;13.776;2023-07-08T00:42:16;15.40;99.90
22167;DHT22;11249;52.468;13.776;2023-07-08T00:44:44;15.40;99.90
22167;DHT22;11249;52.468;13.776;2023-07-08T00:47:12;15.30;99.90
22167;DHT22;11249;52.468;13.776;2023-07-08T00:49:45;15.30;99.90
22167;DHT22;11249;52.468;13.776;2023-07-08T00:52:24;15.20;99.90
22167;DHT22;11249;52.468;13.776;2023-07-08T00:54:57;15.20;99.90
22167;DHT22;11249;52.468;13.776;2023-07-08T00:57:28;15.20;99.90
22167;DHT22;11249;52.468;13.776;2023-07-08T01:00:02;15.10;99.90
22167;DHT22;11249;52.468;13.776;2023-07-08T01:02:36;15.10;99.90
22167;DHT22;11249;52.468;13.776;2023-07-08T01:05:08;15.10;99.90
22167;DHT22;11249;52.468;13.776;2023-07-08T01:07:40;15.00;99.90
22167;DHT22;11249;52.468;13.776;2023-07-08T01:10:10;15.00;99.90
22167;DHT22;11249;52.468;13.776;2023-07-08T01:12:44;15.00;99.90
22167;DHT22;11249;52.468;13.776;2023-07-08T01:15:12;15.00;99.90
22167;DHT22;11249;52.468;13.776;2023-07-08T01:17:43;14.90;99.90
22167;DHT22;11249;52.468;13.776;2023-07-08T01:20:11;14.90;99.90
22167;DHT22;11249;52.468;13.776;2023-07-08T01:22:41;14.90;99.90
22167;DHT22;11249;52.468;13.776;2023-07-08T01:25:10;14.90;99.90
22167;DHT22;11249;52.468;13.776;2023-07-08T01:27:41;14.80;99.90
22167;DHT22;11249;52.468;13.776;2023-07-08T01:30:10;14.80;99.90
22167;DHT22;11249;52.468;13.776;2023-07-08T01:32:39;14.80;99.90
22167;DHT22;11249;52.468;13.776;2023-07-08T01:35:09;14.80;99.90
22167;DHT22;11249;52.468;13.776;2023-07-08T01:37:40;14.70;99.90
22167;DHT22;11249;52.468;13.776;2023-07-08T01:40:25;14.70;99.90
22167;DHT22;11249;52.468;13.776;2023-07-08T01:42:53;14.60;99.90
22167;DHT22;11249;52.468;13.776;2023-07-08T01:45:21;14.60;99.90
22167;DHT22;11249;52.468;13.776;2023-07-08T01:47:57;14.50;99.90
22167;DHT22;11249;52.468;13.776;2023-07-08T01:50:25;14.50;99.90
22167;DHT22;11249;52.468;13.776;2023-07-08T01:52:53;14.50;99.90
22167;DHT22;11249;52.468;13.776;2023-07-08T01:55:23;14.50;99.90
22167;DHT22;11249;52.468;13.776;2023-07-08T01:57:54;14.40;99.90
22167;DHT22;11249;52.468;13.776;2023-07-08T02:00:21;14.40;99.90
22167;DHT22;11249;52.468;13.776;2023-07-08T02:02:50;14.40;99.90
22167;DHT22;11249;52.468;13.776;2023-07-08T02:05:17;14.40;99.90
22167;DHT22;11249;52.468;13.776;2023-07-08T02:07:44;14.30;99.90
22167;DHT22;11249;52.468;13.776;2023-07-08T02:10:10;14.30;99.90
22167;DHT22;11249;52.468;13.776;2023-07-08T02:12:37;14.30;99.90
22167;DHT22;11249;52.468;13.776;2023-07-08T02:15:05;14.30;99.90
22167;DHT22;11249;52.468;13.776;2023-07-08T02:17:32;14.30;99.90
22167;DHT22;11249;52.468;13.776;2023-07-08T02:19:59;14.30;99.90
22167;DHT22;11249;52.468;13.776;2023-07-08T02:22:26;14.30;99.90
22167;DHT22;11249;52.468;13.776;2023-07-08T02:24:53;14.20;99.90
22167;DHT22;11249;52.468;13.776;2023-07-08T02:27:19;14.20;99.90
22167;DHT22;11249;52.468;13.776;2023-07-08T02:29:46;14.20;99.90
22167;DHT22;11249;52.468;13.776;2023-07-08T02:32:12;14.20;99.90
22167;DHT22;11249;52.468;13.776;2023-07-08T02:34:39;14.20;99.90
22167;DHT22;11249;52.468;13.776;2023-07-08T02:37:06;14.10;99.90
22167;DHT22;11249;52.468;13.776;2023-07-08T02:39:33;14.10;99.90
22167;DHT22;11249;52.468;13.776;2023-07-08T02:42:02;14.10;99.90
22167;DHT22;11249;52.468;13.776;2023-07-08T02:44:29;14.10;99.90
22167;DHT22;11249;52.468;13.776;2023-07-08T02:46:55;14.00;99.90
22167;DHT22;11249;52.468;13.776;2023-07-08T02:49:22;14.00;99.90
22167;DHT22;11249;52.468;13.776;2023-07-08T02:51:49;14.00;99.90
22167;DHT22;11249;52.468;13.776;2023-07-08T02:54:15;14.00;99.90
22167;DHT22;11249;52.468;13.776;2023-07-08T02:56:42;13.90;99.90
22167;DHT22;11249;52.468;13.776;2023-07-08T02:59:09;13.90;99.90
22167;DHT22;11249;52.468;13.776;2023-07-08T03:01:35;13.90;99.90
22167;DHT22;11249;52.468;13.776;2023-07-08T03:04:09;13.90;99.90
22167;DHT22;11249;52.468;13.776;2023-07-08T03:06:43;13.90;99.90
22167;DHT22;11249;52.468;13.776;2023-07-08T03:09:11;13.90;99.90
22167;DHT22;11249;52.468;13.776;2023-07-08T03:11:39;13.80;99.90
22167;DHT22;11249;52.468;13.776;2023-07-08T03:14:06;13.80;99.90
22167;DHT22;11249;52.468;13.776;2023-07-08T03:16:33;13.90;99.90
22167;DHT22;11249;52.468;13.776;2023-07-08T03:19:00;13.80;99.90
22167;DHT22;11249;52.468;13.776;2023-07-08T03:21:27;13.90;99.90
22167;DHT22;11249;52.468;13.776;2023-07-08T03:23:53;13.90;99.90
22167;DHT22;11249;52.468;13.776;2023-07-08T03:26:23;13.90;99.90
22167;DHT22;11249;52.468;13.776;2023-07-08T03:28:50;13.80;99.90
22167;DHT22;11249;52.468;13.776;2023-07-08T03:31:17;13.80;99.90
22167;DHT22;11249;52.468;13.776;2023-07-08T03:33:44;13.80;99.90
22167;DHT22;11249;52.468;13.776;2023-07-08T03:36:13;13.80;99.90
22167;DHT22;11249;52.468;13.776;2023-07-08T03:38:53;13.90;99.90
22167;DHT22;11249;52.468;13.776;2023-07-08T03:41:20;13.90;99.90
22167;DHT22;11249;52.468;13.776;2023-07-08T03:43:47;13.90;99.90
22167;DHT22;11249;52.468;13.776;2023-07-08T03:46:15;13.90;99.90
22167;DHT22;11249;52.468;13.776;2023-07-08T03:48:42;13.90;99.90
22167;DHT22;11249;52.468;13.776;2023-07-08T03:51:27;14.00;99.90
22167;DHT22;11249;52.468;13.776;2023-07-08T03:53:55;14.00;99.90
22167;DHT22;11249;52.468;13.776;2023-07-08T03:56:22;14.00;99.90
22167;DHT22;11249;52.468;13.776;2023-07-08T03:58:49;14.10;99.90
22167;DHT22;11249;52.468;13.776;2023-07-08T04:01:18;14.10;99.90
22167;DHT22;11249;52.468;13.776;2023-07-08T04:03:47;14.10;99.90
22167;DHT22;11249;52.468;13.776;2023-07-08T04:06:14;14.20;99.90
22167;DHT22;11249;52.468;13.776;2023-07-08T04:08:41;14.20;99.90
22167;DHT22;11249;52.468;13.776;2023-07-08T04:11:12;14.20;99.90
22167;DHT22;11249;52.468;13.776;2023-07-08T04:13:38;14.30;99.90
22167;DHT22;11249;52.468;13.776;2023-07-08T04:16:06;14.30;99.90
22167;DHT22;11249;52.468;13.776;2023-07-08T04:18:33;14.30;99.90
22167;DHT22;11249;52.468;13.776;2023-07-08T04:20:59;14.40;99.90
22167;DHT22;11249;52.468;13.776;2023-07-08T04:23:29;14.40;99.90
22167;DHT22;11249;52.468;13.776;2023-07-08T04:25:56;14.40;99.90
22167;DHT22;11249;52.468;13.776;2023-07-08T04:28:23;14.50;99.90
22167;DHT22;11249;52.468;13.776;2023-07-08T04:30:50;14.50;99.90
22167;DHT22;11249;52.468;13.776;2023-07-08T04:33:17;14.60;99.90
22167;DHT22;11249;52.468;13.776;2023-07-08T04:35:45;14.60;99.90
22167;DHT22;11249;52.468;13.776;2023-07-08T04:38:25;14.70;99.90
22167;DHT22;11249;52.468;13.776;2023-07-08T04:40:53;14.80;99.90
22167;DHT22;11249;52.468;13.776;2023-07-08T04:43:21;14.80;99.90
22167;DHT22;11249;52.468;13.776;2023-07-08T04:45:51;14.80;99.90
22167;DHT22;11249;52.468;13.776;2023-07-08T04:48:20;14.90;99.90
22167;DHT22;11249;52.468;13.776;2023-07-08T04:50:52;15.00;99.90
22167;DHT22;11249;52.468;13.776;2023-07-08T04:53:19;15.00;99.90
22167;DHT22;11249;52.468;13.776;2023-07-08T04:55:50;15.10;99.90
22167;DHT22;11249;52.468;13.776;2023-07-08T04:58:17;15.20;99.90
22167;DHT22;11249;52.468;13.776;2023-07-08T05:00:44;15.30;99.90
22167;DHT22;11249;52.468;13.776;2023-07-08T05:03:11;15.30;99.90
22167;DHT22;11249;52.468;13.776;2023-07-08T05:05:37;15.50;99.90
22167;DHT22;11249;52.468;13.776;2023-07-08T05:08:05;15.50;99.90
22167;DHT22;11249;52.468;13.776;2023-07-08T05:10:32;15.60;99.90
22167;DHT22;11249;52.468;13.776;2023-07-08T05:12:59;15.70;99.90
22167;DHT22;11249;52.468;13.776;2023-07-08T05:15:26;15.80;99.90
22167;DHT22;11249;52.468;13.776;2023-07-08T05:17:52;15.90;99.90
22167;DHT22;11249;52.468;13.776;2023-07-08T05:20:19;16.10;99.90
22167;DHT22;11249;52.468;13.776;2023-07-08T05:22:46;16.20;99.90
22167;DHT22;11249;52.468;13.776;2023-07-08T05:25:14;16.30;99.90
22167;DHT22;11249;52.468;13.776;2023-07-08T05:27:41;16.40;99.90
22167;DHT22;11249;52.468;13.776;2023-07-08T05:30:12;16.50;99.90
22167;DHT22;11249;52.468;13.776;2023-07-08T05:32:39;16.50;99.90
22167;DHT22;11249;52.468;13.776;2023-07-08T05:35:07;16.70;99.90
22167;DHT22;11249;52.468;13.776;2023-07-08T05:37:36;16.80;99.90
22167;DHT22;11249;52.468;13.776;2023-07-08T05:40:04;17.00;99.90
22167;DHT22;11249;52.468;13.776;2023-07-08T05:42:31;17.20;99.90
22167;DHT22;11249;52.468;13.776;2023-07-08T05:44:58;17.30;99.90
22167;DHT22;11249;52.468;13.776;2023-07-08T05:47:26;17.40;99.90
22167;DHT22;11249;52.468;13.776;2023-07-08T05:49:53;17.60;99.90
22167;DHT22;11249;52.468;13.776;2023-07-08T05:52:19;17.70;99.90
22167;DHT22;11249;52.468;13.776;2023-07-08T05:54:46;17.90;99.90
22167;DHT22;11249;52.468;13.776;2023-07-08T05:57:13;18.30;99.90
22167;DHT22;11249;52.468;13.776;2023-07-08T05:59:39;18.40;99.90
22167;DHT22;11249;52.468;13.776;2023-07-08T06:02:07;18.60;99.90
22167;DHT22;11249;52.468;13.776;2023-07-08T06:04:35;18.70;99.90
22167;DHT22;11249;52.468;13.776;2023-07-08T06:07:02;18.70;99.90
22167;DHT22;11249;52.468;13.776;2023-07-08T06:09:29;18.80;99.90
22167;DHT22;11249;52.468;13.776;2023-07-08T06:11:56;18.90;99.90
22167;DHT22;11249;52.468;13.776;2023-07-08T06:14:23;18.90;99.90
22167;DHT22;11249;52.468;13.776;2023-07-08T06:16:50;18.90;99.90
22167;DHT22;11249;52.468;13.776;2023-07-08T06:19:16;19.00;99.90
22167;DHT22;11249;52.468;13.776;2023-07-08T06:21:43;19.10;99.90
22167;DHT22;11249;52.468;13.776;2023-07-08T06:24:10;19.20;99.90
22167;DHT22;11249;52.468;13.776;2023-07-08T06:26:37;19.30;99.90
22167;DHT22;11249;52.468;13.776;2023-07-08T06:29:05;19.40;99.90
22167;DHT22;11249;52.468;13.776;2023-07-08T06:31:31;19.50;99.90
22167;DHT22;11249;52.468;13.776;2023-07-08T06:33:59;19.80;99.90
22167;DHT22;11249;52.468;13.776;2023-07-08T06:36:26;20.10;99.90
22167;DHT22;11249;52.468;13.776;2023-07-08T06:38:53;20.10;99.90
22167;DHT22;11249;52.468;13.776;2023-07-08T06:41:19;20.30;99.90
22167;DHT22;11249;52.468;13.776;2023-07-08T06:43:46;20.50;99.90
22167;DHT22;11249;52.468;13.776;2023-07-08T06:46:13;20.50;99.90
22167;DHT22;11249;52.468;13.776;2023-07-08T06:48:39;20.50;99.90
22167;DHT22;11249;52.468;13.776;2023-07-08T06:51:07;20.60;99.90
22167;DHT22;11249;52.468;13.776;2023-07-08T06:53:33;20.70;99.90
22167;DHT22;11249;52.468;13.776;2023-07-08T06:56:00;20.80;99.90
22167;DHT22;11249;52.468;13.776;2023-07-08T06:58:28;20.90;99.90
22167;DHT22;11249;52.468;13.776;2023-07-08T07:00:55;21.30;99.90
22167;DHT22;11249;52.468;13.776;2023-07-08T07:03:23;21.30;99.90
22167;DHT22;11249;52.468;13.776;2023-07-08T07:05:50;21.30;99.90
22167;DHT22;11249;52.468;13.776;2023-07-08T07:08:16;21.40;99.90
22167;DHT22;11249;52.468;13.776;2023-07-08T07:10:43;21.50;99.90
22167;DHT22;11249;52.468;13.776;2023-07-08T07:13:10;21.70;99.90
22167;DHT22;11249;52.468;13.776;2023-07-08T07:15:37;21.90;99.90
22167;DHT22;11249;52.468;13.776;2023-07-08T07:18:04;22.00;99.90
22167;DHT22;11249;52.468;13.776;2023-07-08T07:20:31;22.00;99.90
22167;DHT22;11249;52.468;13.776;2023-07-08T07:22:57;22.30;99.90
22167;DHT22;11249;52.468;13.776;2023-07-08T07:25:24;22.60;99.90
22167;DHT22;11249;52.468;13.776;2023-07-08T07:27:51;22.60;99.90
22167;DHT22;11249;52.468;13.776;2023-07-08T07:30:18;22.60;99.90
22167;DHT22;11249;52.468;13.776;2023-07-08T07:32:45;22.60;99.90
22167;DHT22;11249;52.468;13.776;2023-07-08T07:35:13;22.60;99.90
22167;DHT22;11249;52.468;13.776;2023-07-08T07:37:42;22.70;99.90
22167;DHT22;11249;52.468;13.776;2023-07-08T07:40:10;22.90;99.90
22167;DHT22;11249;52.468;13.776;2023-07-08T07:42:40;23.00;99.90
22167;DHT22;11249;52.468;13.776;2023-07-08T07:45:07;23.10;99.90
22167;DHT22;11249;52.468;13.776;2023-07-08T07:47:35;23.10;99.90
22167;DHT22;11249;52.468;13.776;2023-07-08T07:50:03;23.20;99.90
22167;DHT22;11249;52.468;13.776;2023-07-08T07:52:30;23.30;99.90
22167;DHT22;11249;52.468;13.776;2023-07-08T07:54:57;23.30;99.90
22167;DHT22;11249;52.468;13.776;2023-07-08T07:57:24;23.50;99.90
22167;DHT22;11249;52.468;13.776;2023-07-08T07:59:51;23.60;99.90
22167;DHT22;11249;52.468;13.776;2023-07-08T08:02:19;23.70;99.90
22167;DHT22;11249;52.468;13.776;2023-07-08T08:04:46;23.70;99.90
22167;DHT22;11249;52.468;13.776;2023-07-08T08:07:13;23.80;99.90
22167;DHT22;11249;52.468;13.776;2023-07-08T08:09:39;23.80;99.90
22167;DHT22;11249;52.468;13.776;2023-07-08T08:12:09;23.90;99.90
22167;DHT22;11249;52.468;13.776;2023-07-08T08:14:37;24.10;99.90
22167;DHT22;11249;52.468;13.776;2023-07-08T08:17:04;24.20;99.90
22167;DHT22;11249;52.468;13.776;2023-07-08T08:19:31;24.40;99.90
22167;DHT22;11249;52.468;13.776;2023-07-08T08:21:58;24.50;99.90
22167;DHT22;11249;52.468;13.776;2023-07-08T08:24:25;24.60;99.90
22167;DHT22;11249;52.468;13.776;2023-07-08T08:26:54;24.60;99.90
22167;DHT22;11249;52.468;13.776;2023-07-08T08:29:20;24.70;99.90
22167;DHT22;11249;52.468;13.776;2023-07-08T08:31:47;24.70;99.90
22167;DHT22;11249;52.468;13.776;2023-07-08T08:34:14;24.80;99.90
22167;DHT22;11249;52.468;13.776;2023-07-08T08:36:41;24.80;99.90
22167;DHT22;11249;52.468;13.776;2023-07-08T08:39:07;24.90;99.90
22167;DHT22;11249;52.468;13.776;2023-07-08T08:41:37;25.10;99.90
22167;DHT22;11249;52.468;13.776;2023-07-08T08:44:05;25.20;99.90
22167;DHT22;11249;52.468;13.776;2023-07-08T08:46:52;25.30;99.90
22167;DHT22;11249;52.468;13.776;2023-07-08T08:49:36;25.40;99.90
22167;DHT22;11249;52.468;13.776;2023-07-08T08:52:04;25.50;99.90
22167;DHT22;11249;52.468;13.776;2023-07-08T08:54:31;25.60;99.90
22167;DHT22;11249;52.468;13.776;2023-07-08T08:57:16;25.60;99.90
22167;DHT22;11249;52.468;13.776;2023-07-08T08:59:56;25.80;99.90
22167;DHT22;11249;52.468;13.776;2023-07-08T09:02:34;25.80;99.90
22167;DHT22;11249;52.468;13.776;2023-07-08T09:05:08;25.90;99.90
22167;DHT22;11249;52.468;13.776;2023-07-08T09:12:56;26.20;99.90
22167;DHT22;11249;52.468;13.776;2023-07-08T09:15:26;26.20;99.90
22167;DHT22;11249;52.468;13.776;2023-07-08T09:17:53;26.20;99.90
22167;DHT22;11249;52.468;13.776;2023-07-08T09:20:26;26.30;99.90
22167;DHT22;11249;52.468;13.776;2023-07-08T09:23:30;26.40;99.90
22167;DHT22;11249;52.468;13.776;2023-07-08T09:26:07;26.50;99.90
22167;DHT22;11249;52.468;13.776;2023-07-08T09:28:40;26.50;99.90
22167;DHT22;11249;52.468;13.776;2023-07-08T09:31:11;26.60;99.90
22167;DHT22;11249;52.468;13.776;2023-07-08T09:33:41;26.70;99.90
22167;DHT22;11249;52.468;13.776;2023-07-08T09:36:23;26.70;99.90
22167;DHT22;11249;52.468;13.776;2023-07-08T09:38:51;26.80;99.90
22167;DHT22;11249;52.468;13.776;2023-07-08T09:41:35;26.70;99.90
22167;DHT22;11249;52.468;13.776;2023-07-08T09:44:13;26.70;99.60
22167;DHT22;11249;52.468;13.776;2023-07-08T09:46:40;26.80;99.60
22167;DHT22;11249;52.468;13.776;2023-07-08T09:51:45;27.00;96.40
22167;DHT22;11249;52.468;13.776;2023-07-08T09:54:11;27.10;95.70
22167;DHT22;11249;52.468;13.776;2023-07-08T09:56:41;27.10;95.70
22167;DHT22;11249;52.468;13.776;2023-07-08T09:59:14;27.20;92.00
22167;DHT22;11249;52.468;13.776;2023-07-08T10:01:42;27.20;94.80
22167;DHT22;11249;52.468;13.776;2023-07-08T10:04:09;27.30;93.60
22167;DHT22;11249;52.468;13.776;2023-07-08T10:06:35;27.40;95.20
22167;DHT22;11249;52.468;13.776;2023-07-08T10:09:08;27.50;93.50
22167;DHT22;11249;52.468;13.776;2023-07-08T10:11:42;27.50;93.50
22167;DHT22;11249;52.468;13.776;2023-07-08T10:14:26;27.50;93.70
22167;DHT22;11249;52.468;13.776;2023-07-08T10:16:54;27.50;94.80
22167;DHT22;11249;52.468;13.776;2023-07-08T10:19:21;27.60;96.00
22167;DHT22;11249;52.468;13.776;2023-07-08T10:22:14;27.80;93.90
22167;DHT22;11249;52.468;13.776;2023-07-08T10:30:30;28.00;95.00
22167;DHT22;11249;52.468;13.776;2023-07-08T10:33:32;28.30;93.80
22167;DHT22;11249;52.468;13.776;2023-07-08T10:36:19;28.50;92.50
22167;DHT22;11249;52.468;13.776;2023-07-08T10:42:17;29.10;91.90
22167;DHT22;11249;52.468;13.776;2023-07-08T10:53:17;30.00;91.10
22167;DHT22;11249;52.468;13.776;2023-07-08T10:56:18;30.10;89.60
22167;DHT22;11249;52.468;13.776;2023-07-08T10:59:18;30.00;87.00
22167;DHT22;11249;52.468;13.776;2023-07-08T11:02:02;30.30;86.90
22167;DHT22;11249;52.468;13.776;2023-07-08T11:04:33;30.30;85.10
22167;DHT22;11249;52.468;13.776;2023-07-08T11:07:15;30.50;85.00
22167;DHT22;11249;52.468;13.776;2023-07-08T11:09:49;30.90;86.60
22167;DHT22;11249;52.468;13.776;2023-07-08T11:12:28;31.20;85.50
22167;DHT22;11249;52.468;13.776;2023-07-08T11:17:38;31.80;86.10
22167;DHT22;11249;52.468;13.776;2023-07-08T11:20:17;32.10;84.60
22167;DHT22;11249;52.468;13.776;2023-07-08T11:22:49;31.80;82.40
22167;DHT22;11249;52.468;13.776;2023-07-08T11:25:20;32.20;82.50
22167;DHT22;11249;52.468;13.776;2023-07-08T11:27:50;32.80;84.80
22167;DHT22;11249;52.468;13.776;2023-07-08T11:30:22;33.00;82.10
22167;DHT22;11249;52.468;13.776;2023-07-08T11:33:06;33.10;80.80
22167;DHT22;11249;52.468;13.776;2023-07-08T11:35:45;33.60;83.80
22167;DHT22;11249;52.468;13.776;2023-07-08T11:38:19;33.60;80.20
22167;DHT22;11249;52.468;13.776;2023-07-08T11:40:59;33.80;78.00
22167;DHT22;11249;52.468;13.776;2023-07-08T11:43:34;33.00;75.50
22167;DHT22;11249;52.468;13.776;2023-07-08T11:46:05;33.20;76.50
22167;DHT22;11249;52.468;13.776;2023-07-08T11:48:37;33.50;76.40
22167;DHT22;11249;52.468;13.776;2023-07-08T11:51:05;32.10;75.00
22167;DHT22;11249;52.468;13.776;2023-07-08T11:53:36;32.00;77.60
22167;DHT22;11249;52.468;13.776;2023-07-08T12:01:22;33.40;77.80
22167;DHT22;11249;52.468;13.776;2023-07-08T12:03:54;33.90;78.20
22167;DHT22;11249;52.468;13.776;2023-07-08T12:08:56;34.10;74.80
22167;DHT22;11249;52.468;13.776;2023-07-08T12:11:43;34.20;73.10
22167;DHT22;11249;52.468;13.776;2023-07-08T12:14:10;34.50;75.40
22167;DHT22;11249;52.468;13.776;2023-07-08T12:16:37;34.80;74.60
22167;DHT22;11249;52.468;13.776;2023-07-08T12:19:05;35.00;73.30
22167;DHT22;11249;52.468;13.776;2023-07-08T12:21:36;34.40;72.50
22167;DHT22;11249;52.468;13.776;2023-07-08T12:24:05;34.40;73.20
22167;DHT22;11249;52.468;13.776;2023-07-08T12:26:35;34.50;71.60
22167;DHT22;11249;52.468;13.776;2023-07-08T12:29:02;34.60;71.80
22167;DHT22;11249;52.468;13.776;2023-07-08T12:31:28;34.90;76.00
22167;DHT22;11249;52.468;13.776;2023-07-08T12:33:55;35.20;70.40
22167;DHT22;11249;52.468;13.776;2023-07-08T12:36:25;35.20;70.80
22167;DHT22;11249;52.468;13.776;2023-07-08T12:38:55;35.20;69.70
22167;DHT22;11249;52.468;13.776;2023-07-08T12:41:32;35.20;69.70
22167;DHT22;11249;52.468;13.776;2023-07-08T12:44:00;35.50;69.50
22167;DHT22;11249;52.468;13.776;2023-07-08T12:46:28;35.80;69.40
22167;DHT22;11249;52.468;13.776;2023-07-08T12:48:55;35.70;67.40
22167;DHT22;11249;52.468;13.776;2023-07-08T12:51:26;35.50;67.20
22167;DHT22;11249;52.468;13.776;2023-07-08T12:53:53;35.60;67.70
22167;DHT22;11249;52.468;13.776;2023-07-08T12:56:22;35.80;67.70
22167;DHT22;11249;52.468;13.776;2023-07-08T12:58:55;36.10;69.10
22167;DHT22;11249;52.468;13.776;2023-07-08T13:01:25;36.40;65.50
22167;DHT22;11249;52.468;13.776;2023-07-08T13:03:59;36.40;67.40
22167;DHT22;11249;52.468;13.776;2023-07-08T13:06:30;36.20;65.70
22167;DHT22;11249;52.468;13.776;2023-07-08T13:11:54;36.40;67.20
22167;DHT22;11249;52.468;13.776;2023-07-08T13:14:24;36.60;65.30
22167;DHT22;11249;52.468;13.776;2023-07-08T13:16:51;36.30;65.10
22167;DHT22;11249;52.468;13.776;2023-07-08T13:19:18;36.20;65.40
22167;DHT22;11249;52.468;13.776;2023-07-08T13:21:48;36.30;66.40
22167;DHT22;11249;52.468;13.776;2023-07-08T13:24:16;36.40;64.70
22167;DHT22;11249;52.468;13.776;2023-07-08T13:26:46;36.70;66.80
22167;DHT22;11249;52.468;13.776;2023-07-08T13:29:16;36.90;64.60
22167;DHT22;11249;52.468;13.776;2023-07-08T13:31:55;37.60;64.30
22167;DHT22;11249;52.468;13.776;2023-07-08T13:34:24;38.20;63.60
22167;DHT22;11249;52.468;13.776;2023-07-08T13:36:52;38.70;63.90
22167;DHT22;11249;52.468;13.776;2023-07-08T13:39:28;38.20;62.80
22167;DHT22;11249;52.468;13.776;2023-07-08T13:41:56;37.90;61.90
22167;DHT22;11249;52.468;13.776;2023-07-08T13:44:23;37.90;61.90
22167;DHT22;11249;52.468;13.776;2023-07-08T13:46:53;37.70;63.10
22167;DHT22;11249;52.468;13.776;2023-07-08T13:49:27;37.60;62.40
22167;DHT22;11249;52.468;13.776;2023-07-08T13:54:41;36.50;63.40
22167;DHT22;11249;52.468;13.776;2023-07-08T13:57:18;36.90;63.90
22167;DHT22;11249;52.468;13.776;2023-07-08T13:59:45;37.50;71.90
22167;DHT22;11249;52.468;13.776;2023-07-08T14:02:19;37.30;61.80
22167;DHT22;11249;52.468;13.776;2023-07-08T14:04:47;37.70;64.40
22167;DHT22;11249;52.468;13.776;2023-07-08T14:07:20;38.00;63.70
22167;DHT22;11249;52.468;13.776;2023-07-08T14:09:47;37.90;64.50
22167;DHT22;11249;52.468;13.776;2023-07-08T14:12:14;37.40;64.30
22167;DHT22;11249;52.468;13.776;2023-07-08T14:14:41;37.50;67.50
22167;DHT22;11249;52.468;13.776;2023-07-08T14:17:14;37.90;66.70
22167;DHT22;11249;52.468;13.776;2023-07-08T14:19:44;38.20;65.70
22167;DHT22;11249;52.468;13.776;2023-07-08T14:24:41;38.00;61.50
22167;DHT22;11249;52.468;13.776;2023-07-08T14:27:09;37.50;61.30
22167;DHT22;11249;52.468;13.776;2023-07-08T14:29:40;37.00;62.80
22167;DHT22;11249;52.468;13.776;2023-07-08T14:32:25;36.80;61.20
22167;DHT22;11249;52.468;13.776;2023-07-08T14:34:56;36.00;62.30
22167;DHT22;11249;52.468;13.776;2023-07-08T14:37:24;36.50;62.70
22167;DHT22;11249;52.468;13.776;2023-07-08T14:39:51;37.30;62.70
22167;DHT22;11249;52.468;13.776;2023-07-08T14:42:19;37.80;61.20
22167;DHT22;11249;52.468;13.776;2023-07-08T14:44:50;38.20;60.00
22167;DHT22;11249;52.468;13.776;2023-07-08T14:47:18;38.50;60.60
22167;DHT22;11249;52.468;13.776;2023-07-08T14:49:45;38.80;59.90
22167;DHT22;11249;52.468;13.776;2023-07-08T14:52:12;38.90;60.40
22167;DHT22;11249;52.468;13.776;2023-07-08T14:54:40;38.70;60.30
22167;DHT22;11249;52.468;13.776;2023-07-08T14:57:15;38.60;60.50
22167;DHT22;11249;52.468;13.776;2023-07-08T14:59:42;37.60;60.70
22167;DHT22;11249;52.468;13.776;2023-07-08T15:02:18;37.10;62.00
22167;DHT22;11249;52.468;13.776;2023-07-08T15:04:45;37.90;62.10
22167;DHT22;11249;52.468;13.776;2023-07-08T15:07:13;38.60;62.30
22167;DHT22;11249;52.468;13.776;2023-07-08T15:09:39;39.20;60.60
22167;DHT22;11249;52.468;13.776;2023-07-08T15:12:10;39.40;59.60
22167;DHT22;11249;52.468;13.776;2023-07-08T15:14:38;39.80;60.40
22167;DHT22;11249;52.468;13.776;2023-07-08T15:17:14;39.90;58.80
22167;DHT22;11249;52.468;13.776;2023-07-08T15:19:44;39.60;59.00
22167;DHT22;11249;52.468;13.776;2023-07-08T15:22:11;39.30;56.60
22167;DHT22;11249;52.468;13.776;2023-07-08T15:24:37;38.80;57.60
22167;DHT22;11249;52.468;13.776;2023-07-08T15:27:05;38.90;56.10
22167;DHT22;11249;52.468;13.776;2023-07-08T15:29:33;38.60;57.00
22167;DHT22;11249;52.468;13.776;2023-07-08T15:32:00;38.50;56.30
22167;DHT22;11249;52.468;13.776;2023-07-08T15:34:27;38.60;57.30
22167;DHT22;11249;52.468;13.776;2023-07-08T15:36:54;38.60;57.40
22167;DHT22;11249;52.468;13.776;2023-07-08T15:39:21;38.50;57.20
22167;DHT22;11249;52.468;13.776;2023-07-08T15:41:49;38.10;56.40
22167;DHT22;11249;52.468;13.776;2023-07-08T15:44:16;37.80;57.30
22167;DHT22;11249;52.468;13.776;2023-07-08T15:46:48;38.00;56.90
22167;DHT22;11249;52.468;13.776;2023-07-08T15:51:44;37.30;57.70
22167;DHT22;11249;52.468;13.776;2023-07-08T15:54:15;37.40;57.10
22167;DHT22;11249;52.468;13.776;2023-07-08T15:56:42;37.40;56.40
22167;DHT22;11249;52.468;13.776;2023-07-08T15:59:14;37.30;57.10
22167;DHT22;11249;52.468;13.776;2023-07-08T16:01:42;37.60;56.80
22167;DHT22;11249;52.468;13.776;2023-07-08T16:04:22;37.30;56.80
22167;DHT22;11249;52.468;13.776;2023-07-08T16:06:50;37.60;56.00
22167;DHT22;11249;52.468;13.776;2023-07-08T16:09:17;37.50;56.30
22167;DHT22;11249;52.468;13.776;2023-07-08T16:11:44;37.60;57.80
22167;DHT22;11249;52.468;13.776;2023-07-08T16:14:13;37.80;57.60
22167;DHT22;11249;52.468;13.776;2023-07-08T16:16:40;37.50;56.30